Terminal Aerodrome Forecast
Issued by NWS Burlington, VT

Home | Current Version | Previous Version | Text Only | Print | Product List | Glossary On
Versions: 1 2 3 4 5 6 7 8 9 10 11 12 13 14 15 16 17 18 19
000
FTUS41 KBTV 031725
TAFBTV
TAF
KBTV 031725Z 0318/0418 36004KT P6SM OVC025
     FM032100 35006KT P6SM FEW040
     FM032300 03006KT P6SM FEW200
     FM040300 VRB03KT P6SM SCT030
     FM041000 14004KT P6SM BKN030=

USA.gov is the U.S. government's official web portal to all federal, state and local government web resources and services.